メインページ
METAR-TAF:

METAR-TAF

空港 :

サンフランシスコ, カリフォルニア州, アメリカ合衆国

サンフランシスコ国際空港

緯度: 37-37-11N, 経度: 122-21-53W, 海抜: 3m

現時点の気象観測

当レポートは38分前の15:56(UTC)に作成
無風
気温 14°C
湿度 88%
気圧 1021 hPa
視程: 11.3km
高度20000ftの雲は散在している

METAR: KSFO 221556Z 00000KT 7SM SCT200 14/12 A3015 RMK AO2 SLP209 T01390122

時間: 08:34 (16:34 UTC)

予報

当レポートは44分前の15:50(UTC)に作成
予報は22日の 16時(UTC)から 23日の 18時(UTC)まで有効
変向風 4kt
視程: 10km
高度20000ftの千切れ雲あり
22日の 16時(UTC)から 22日の 17時(UTC)まで一時的に
視程: 9.7km
煙霧
22日の 1800時(UTC)から
北/北西の風 4kt
視程: 10km
高度25000ftの千切れ雲あり
22日の 2300時(UTC)から
西/北西の風 7kt
視程: 10km
高度20000ftの千切れ雲あり
23日の 0600時(UTC)から
西/北西の風 5kt
視程: 10km
高度20000ftの曇り
23日の 0800時(UTC)から
西の風 8kt
視程: 10km
高度20000ftの曇り
23日の 1500時(UTC)から
西/北西の風 6kt
視程: 10km
高度4000ftの雲は散在している
高度20000ftの千切れ雲あり

TAF: KSFO 221550Z 2216/2318 VRB04KT P6SM BKN200 TEMPO 2216/2217 6SM HZ FM221800 34004KT P6SM BKN250 FM222300 30007KT P6SM BKN200 FM230600 29005KT P6SM OVC200 FM230800 27008KT P6SM OVC200 FM231500 30006KT P6SM SCT040 BKN200

4,000以上の空港の気象観測と天気予報(METAR報とTAF報)

利用可能な観測所は地図上に黄色い丸と赤い丸で示す。

丸の上にカーソルを重ねると観測所名を参照できる。

次にクリックすると気象観測と天気予報を参照できる。

マップの切り替え:黒色「×」印の緑ボタンをクリックして拡大、「-」印の緑ボタンをクリックして縮小、緑色の三角印をクリックして隣りの地図に切り替え


METAR-TAF: